| time (UTC) | temp C | wind direction | speed KPH | gust KPH | rain 1hr cm | rain 24hr cm | rain mn cm | humidity % | barometer mb |
| 20260906214609 | 29 | 57 | 16.1 | 27.4 | 0.00 | 0.03 | 0.03 | 53 | 1011.2 |
| 20260906213107 | 28 | 14 | 17.7 | 30.6 | 0.00 | 0.03 | 0.03 | 54 | 1011.5 |
| 20260906211606 | 28 | 348 | 24.1 | 32.2 | 0.00 | 0.03 | 0.03 | 55 | 1011.6 |
| 20260906210246 | 28 | 344 | 19.3 | 30.6 | 0.00 | 0.03 | 0.03 | 57 | 1011.8 |
| 20260906204606 | 28 | 350 | 20.9 | 29.0 | 0.00 | 0.03 | 0.03 | 59 | 1012.1 |
| 20260906203104 | 27 | 22 | 20.9 | 30.6 | 0.00 | 0.03 | 0.03 | 61 | 1012.2 |
| 20260906201606 | 27 | 341 | 20.9 | 29.0 | 0.00 | 0.03 | 0.03 | 62 | 1012.6 |
| 20260906200104 | 27 | 24 | 14.5 | 25.7 | 0.00 | 0.03 | 0.03 | 65 | 1012.8 |
| 20260906194609 | 26 | 351 | 20.9 | 30.6 | 0.00 | 0.03 | 0.03 | 66 | 1013.0 |
| 20260906193103 | 26 | 350 | 11.3 | 22.5 | 0.00 | 0.03 | 0.03 | 67 | 1013.3 |
| 20260906191605 | 26 | 12 | 11.3 | 24.1 | 0.00 | 0.03 | 0.03 | 66 | 1013.5 |
| 20260906190106 | 25 | 328 | 16.1 | 25.7 | 0.00 | 0.03 | 0.03 | 71 | 1013.6 |
| 20260906184610 | 25 | 328 | 9.7 | 20.9 | 0.00 | 0.03 | 0.03 | 74 | 1013.9 |
| 20260906183106 | 24 | 312 | 6.4 | 20.9 | 0.00 | 0.03 | 0.03 | 75 | 1014.1 |
| 20260906181605 | 23 | 340 | 17.7 | 25.7 | 0.00 | 0.03 | 0.03 | 76 | 1014.4 |
| 20260906180106 | 24 | 33 | 16.1 | 24.1 | 0.00 | 0.03 | 0.03 | 76 | 1014.3 |
| 20260906174602 | 23 | 315 | 11.3 | 19.3 | 0.00 | 0.03 | 0.03 | 78 | 1014.5 |
| 20260906173107 | 23 | 344 | 9.7 | 20.9 | 0.00 | 0.03 | 0.03 | 79 | 1014.7 |
| 20260906171605 | 23 | 316 | 14.5 | 27.4 | 0.00 | 0.03 | 0.03 | 80 | 1014.7 |
| 20260906170106 | 23 | 307 | 12.9 | 20.9 | 0.00 | 0.03 | 0.03 | 80 | 1014.7 |
| 20260906164620 | 22 | 40 | 9.7 | 19.3 | 0.00 | 0.03 | 0.03 | 83 | 1014.6 |
| 20260906163110 | 22 | 59 | 4.8 | 12.9 | 0.00 | 0.03 | 0.03 | 86 | 1014.5 |
| 20260906161605 | 21 | 65 | 0.0 | 16.1 | 0.00 | 0.03 | 0.03 | 88 | 1014.6 |
| 20260906160113 | 21 | 58 | 14.5 | 20.9 | 0.00 | 0.03 | 0.03 | 91 | 1014.0 |
| 20260906154609 | 20 | 350 | 1.6 | 16.1 | 0.00 | 0.03 | 0.03 | 96 | 1014.2 |
| 20260906153103 | 20 | 349 | 1.6 | 8.0 | 0.00 | 0.03 | 0.03 | 97 | 1014.2 |
| 20260906151609 | 19 | 340 | 9.7 | 22.5 | 0.00 | 0.03 | 0.03 | 97 | 1014.2 |
| 20260906150121 | 19 | 341 | 12.9 | 19.3 | 0.00 | 0.03 | 0.03 | 97 | 1014.3 |
| 20260906144634 | 18 | 13 | 16.1 | 20.9 | 0.00 | 0.03 | 0.03 | 97 | 1014.2 |
| 20260906143116 | 18 | 338 | 19.3 | 24.1 | 0.00 | 0.03 | 0.03 | 97 | 1014.5 |
| 20260906141607 | 18 | 67 | 12.9 | 24.1 | 0.03 | 0.03 | 0.03 | 97 | 1014.1 |
| 20260906140107 | 18 | 340 | 14.5 | 19.3 | 0.03 | 0.03 | 0.03 | 97 | 1014.4 |
| 20260906134604 | 18 | 339 | 4.8 | 12.9 | 0.03 | 0.03 | 0.03 | 96 | 1014.9 |
| 20260906133109 | 17 | 84 | 9.7 | 25.7 | 0.03 | 0.03 | 0.03 | 96 | 1014.3 |
| 20260906131615 | 17 | 90 | 6.4 | 16.1 | 0.00 | 0.00 | 0.00 | 96 | 1014.3 |
| 20260906130106 | 17 | 68 | 12.9 | 19.3 | 0.00 | 0.00 | 0.00 | 96 | 1014.5 |
| 20260906124608 | 17 | 82 | 12.9 | 27.4 | 0.00 | 0.00 | 0.00 | 96 | 1014.3 |
| 20260906123110 | 17 | 21 | 17.7 | 33.8 | 0.00 | 0.00 | 0.00 | 96 | 1015.1 |
| 20260906121608 | 17 | 40 | 25.7 | 35.4 | 0.00 | 0.00 | 0.00 | 96 | 1014.7 |
| 20260906120122 | 17 | 350 | 27.4 | 35.4 | 0.00 | 0.00 | 0.00 | 96 | 1014.9 |
| 20260906114611 | 17 | 339 | 16.1 | 25.7 | 0.00 | 0.00 | 0.00 | 96 | 1015.5 |
| 20260906113103 | 17 | 340 | 16.1 | 25.7 | 0.00 | 0.00 | 0.00 | 96 | 1015.2 |
| 20260906111607 | 17 | 45 | 17.7 | 20.9 | 0.00 | 0.00 | 0.00 | 96 | 1014.5 |
| 20260906110113 | 16 | 42 | 8.0 | 14.5 | 0.00 | 0.00 | 0.00 | 95 | 1014.5 |
| 20260906104605 | 16 | 11 | 6.4 | 11.3 | 0.00 | 0.00 | 0.00 | 95 | 1014.5 |
| 20260906103103 | 17 | 338 | 8.0 | 14.5 | 0.00 | 0.00 | 0.00 | 95 | 1014.9 |
| 20260906101603 | 17 | 311 | 6.4 | 8.0 | 0.00 | 0.00 | 0.00 | 95 | 1015.0 |
| 20260906100110 | 17 | 289 | 4.8 | 9.7 | 0.00 | 0.00 | 0.00 | 95 | 1014.6 |
| 20260906094606 | 17 | 291 | 0.0 | 6.4 | 0.00 | 0.00 | 0.00 | 95 | 1014.6 |
| 20260906093118 | 17 | 0 | 0.0 | 3.2 | 0.00 | 0.00 | 0.00 | 94 | 1014.6 |
| 20260906091605 | 17 | 50 | 4.8 | 6.4 | 0.00 | 0.00 | 0.00 | 94 | 1014.5 |
| 20260906090128 | 17 | 42 | 4.8 | 12.9 | 0.00 | 0.00 | 0.00 | 93 | 1014.4 |
| 20260906084604 | 18 | 38 | 8.0 | 9.7 | 0.00 | 0.00 | 0.00 | 93 | 1014.3 |
| 20260906083103 | 18 | 42 | 3.2 | 9.7 | 0.00 | 0.00 | 0.00 | 93 | 1014.5 |
| 20260906081604 | 18 | 25 | 6.4 | 14.5 | 0.00 | 0.00 | 0.00 | 93 | 1014.4 |
| 20260906080105 | 18 | 46 | 9.7 | 12.9 | 0.00 | 0.00 | 0.00 | 93 | 1014.3 |
| 20260906074607 | 18 | 53 | 6.4 | 11.3 | 0.00 | 0.00 | 0.00 | 93 | 1014.7 |
| 20260906073105 | 18 | 75 | 6.4 | 12.9 | 0.00 | 0.00 | 0.00 | 91 | 1014.9 |
| 20260906071610 | 18 | 53 | 8.0 | 9.7 | 0.00 | 0.00 | 0.00 | 91 | 1015.1 |
| 20260906070111 | 18 | 36 | 4.8 | 8.0 | 0.00 | 0.00 | 0.00 | 91 | 1015.1 |
| 20260906064604 | 18 | 34 | 6.4 | 11.3 | 0.00 | 0.00 | 0.00 | 90 | 1015.1 |
| 20260906063104 | 19 | 30 | 3.2 | 16.1 | 0.00 | 0.00 | 0.00 | 89 | 1015.1 |
| 20260906061607 | 19 | 57 | 6.4 | 12.9 | 0.00 | 0.00 | 0.00 | 88 | 1015.1 |
| 20260906060111 | 18 | 37 | 0.0 | 8.0 | 0.00 | 0.00 | 0.00 | 88 | 1015.1 |
| 20260906054604 | 18 | 18 | 8.0 | 12.9 | 0.00 | 0.00 | 0.00 | 88 | 1015.1 |
| 20260906053104 | 18 | 342 | 4.8 | 8.0 | 0.00 | 0.00 | 0.00 | 87 | 1015.2 |
| 20260906051606 | 19 | 351 | 11.3 | 20.9 | 0.00 | 0.00 | 0.00 | 86 | 1015.2 |
| 20260906050133 | 20 | 32 | 19.3 | 22.5 | 0.00 | 0.00 | 0.00 | 84 | 1015.1 |
| 20260906044602 | 20 | 24 | 19.3 | 24.1 | 0.00 | 0.00 | 0.00 | 84 | 1015.2 |
| 20260906043121 | 20 | 41 | 19.3 | 24.1 | 0.00 | 0.00 | 0.00 | 82 | 1015.4 |
| 20260906041605 | 20 | 37 | 19.3 | 24.1 | 0.00 | 0.00 | 0.00 | 82 | 1015.4 |
| 20260906040121 | 20 | 34 | 17.7 | 20.9 | 0.00 | 0.00 | 0.00 | 81 | 1015.6 |
| 20260906034606 | 21 | 42 | 16.1 | 20.9 | 0.00 | 0.00 | 0.00 | 79 | 1015.7 |
| 20260906033108 | 21 | 35 | 14.5 | 20.9 | 0.00 | 0.00 | 0.00 | 78 | 1015.6 |
| 20260906031605 | 21 | 32 | 16.1 | 19.3 | 0.00 | 0.00 | 0.00 | 77 | 1015.6 |
| 20260906030135 | 21 | 36 | 14.5 | 20.9 | 0.00 | 0.00 | 0.00 | 76 | 1015.7 |
| 20260906024609 | 22 | 38 | 11.3 | 19.3 | 0.00 | 0.00 | 0.00 | 75 | 1015.7 |
| 20260906023126 | 22 | 40 | 16.1 | 25.7 | 0.00 | 0.00 | 0.00 | 73 | 1015.4 |
| 20260906021616 | 22 | 64 | 17.7 | 27.4 | 0.00 | 0.00 | 0.00 | 72 | 1015.2 |
| 20260906020107 | 23 | 29 | 24.1 | 32.2 | 0.00 | 0.00 | 0.00 | 70 | 1015.0 |
| 20260906014623 | 23 | 67 | 17.7 | 22.5 | 0.00 | 0.00 | 0.00 | 69 | 1014.9 |
| 20260906013104 | 25 | 46 | 20.9 | 30.6 | 0.00 | 0.00 | 0.00 | 66 | 1014.8 |
| 20260906011607 | 26 | 45 | 22.5 | 30.6 | 0.00 | 0.00 | 0.00 | 62 | 1014.5 |
| 20260906010109 | 26 | 345 | 16.1 | 24.1 | 0.00 | 0.00 | 0.00 | 59 | 1014.2 |
| 20260906004606 | 27 | 346 | 22.5 | 30.6 | 0.00 | 0.00 | 0.00 | 57 | 1014.0 |
| 20260906003110 | 27 | 21 | 20.9 | 30.6 | 0.00 | 0.00 | 0.00 | 56 | 1013.9 |
| 20260906001606 | 28 | 12 | 24.1 | 30.6 | 0.00 | 0.00 | 0.00 | 55 | 1013.9 |
| 20260906000109 | 28 | 346 | 22.5 | 32.2 | 0.00 | 0.00 | 0.00 | 54 | 1013.6 |
| 20260905234618 | 28 | 14 | 20.9 | 29.0 | 0.00 | 0.00 | 0.00 | 53 | 1013.6 |
| 20260905233106 | 28 | 15 | 16.1 | 29.0 | 0.00 | 0.00 | 0.00 | 52 | 1013.4 |
| 20260905231607 | 29 | 344 | 20.9 | 29.0 | 0.00 | 0.00 | 0.00 | 52 | 1013.5 |
| 20260905230110 | 29 | 13 | 24.1 | 32.2 | 0.00 | 0.00 | 0.00 | 51 | 1013.5 |
| 20260905224610 | 29 | 349 | 22.5 | 32.2 | 0.00 | 0.00 | 0.00 | 52 | 1013.4 |
| 20260905223107 | 29 | 43 | 29.0 | 40.2 | 0.00 | 0.00 | 0.00 | 51 | 1013.3 |
| 20260905221605 | 29 | 40 | 20.9 | 35.4 | 0.00 | 0.00 | 0.00 | 50 | 1013.3 |
| 20260905220108 | 29 | 36 | 22.5 | 30.6 | 0.00 | 0.00 | 0.00 | 51 | 1013.4 |
| 20260905214613 | 29 | 342 | 20.9 | 30.6 | 0.00 | 0.00 | 0.00 | 51 | 1013.6 |